sensor_id;sensor_type;location;lat;lon;timestamp;temperature;humidity
70726;DHT22;58304;53.104;6.022;2022-12-11T00:00:53;-0.30;99.90
70726;DHT22;58304;53.104;6.022;2022-12-11T00:03:18;-0.30;99.90
70726;DHT22;58304;53.104;6.022;2022-12-11T00:05:44;-0.20;99.90
70726;DHT22;58304;53.104;6.022;2022-12-11T00:08:10;-0.20;99.90
70726;DHT22;58304;53.104;6.022;2022-12-11T00:10:36;-0.20;99.90
70726;DHT22;58304;53.104;6.022;2022-12-11T00:13:02;-0.20;99.90
70726;DHT22;58304;53.104;6.022;2022-12-11T00:15:28;-0.20;99.90
70726;DHT22;58304;53.104;6.022;2022-12-11T00:17:53;-0.20;99.90
70726;DHT22;58304;53.104;6.022;2022-12-11T00:20:19;-0.20;99.90
70726;DHT22;58304;53.104;6.022;2022-12-11T00:22:45;-0.20;99.90
70726;DHT22;58304;53.104;6.022;2022-12-11T00:25:10;-0.20;99.90
70726;DHT22;58304;53.104;6.022;2022-12-11T00:27:36;-0.10;99.90
70726;DHT22;58304;53.104;6.022;2022-12-11T00:30:02;-0.20;99.90
70726;DHT22;58304;53.104;6.022;2022-12-11T00:32:28;-0.20;99.90
70726;DHT22;58304;53.104;6.022;2022-12-11T00:34:54;-0.20;99.90
70726;DHT22;58304;53.104;6.022;2022-12-11T00:37:19;-0.20;99.90
70726;DHT22;58304;53.104;6.022;2022-12-11T00:39:45;-0.10;99.90
70726;DHT22;58304;53.104;6.022;2022-12-11T00:42:10;-0.20;99.90
70726;DHT22;58304;53.104;6.022;2022-12-11T00:44:36;-0.10;99.90
70726;DHT22;58304;53.104;6.022;2022-12-11T00:47:02;-0.10;99.90
70726;DHT22;58304;53.104;6.022;2022-12-11T00:49:28;-0.10;99.90
70726;DHT22;58304;53.104;6.022;2022-12-11T00:51:53;-0.10;99.90
70726;DHT22;58304;53.104;6.022;2022-12-11T00:54:19;-0.10;99.90
70726;DHT22;58304;53.104;6.022;2022-12-11T00:56:45;-0.10;99.90
70726;DHT22;58304;53.104;6.022;2022-12-11T00:59:10;-0.10;99.90
70726;DHT22;58304;53.104;6.022;2022-12-11T01:01:36;-0.10;99.90
70726;DHT22;58304;53.104;6.022;2022-12-11T01:04:01;0.00;99.90
70726;DHT22;58304;53.104;6.022;2022-12-11T01:06:28;-0.10;99.90
70726;DHT22;58304;53.104;6.022;2022-12-11T01:08:54;-0.10;99.90
70726;DHT22;58304;53.104;6.022;2022-12-11T01:11:40;-0.10;99.90
70726;DHT22;58304;53.104;6.022;2022-12-11T01:14:07;-0.10;99.90
70726;DHT22;58304;53.104;6.022;2022-12-11T01:16:33;0.00;99.90
70726;DHT22;58304;53.104;6.022;2022-12-11T01:18:58;-0.10;99.90
70726;DHT22;58304;53.104;6.022;2022-12-11T01:21:25;-0.10;99.90
70726;DHT22;58304;53.104;6.022;2022-12-11T01:23:51;0.00;99.90
70726;DHT22;58304;53.104;6.022;2022-12-11T01:26:17;0.00;99.90
70726;DHT22;58304;53.104;6.022;2022-12-11T01:28:43;0.00;99.90
70726;DHT22;58304;53.104;6.022;2022-12-11T01:31:10;0.00;99.90
70726;DHT22;58304;53.104;6.022;2022-12-11T01:33:36;0.00;99.90
70726;DHT22;58304;53.104;6.022;2022-12-11T01:36:07;0.00;99.90
70726;DHT22;58304;53.104;6.022;2022-12-11T01:38:33;0.00;99.90
70726;DHT22;58304;53.104;6.022;2022-12-11T01:40:58;0.00;99.90
70726;DHT22;58304;53.104;6.022;2022-12-11T01:43:24;0.00;99.90
70726;DHT22;58304;53.104;6.022;2022-12-11T01:45:49;0.00;99.90
70726;DHT22;58304;53.104;6.022;2022-12-11T01:48:27;0.00;99.90
70726;DHT22;58304;53.104;6.022;2022-12-11T01:50:56;0.10;99.90
70726;DHT22;58304;53.104;6.022;2022-12-11T01:53:27;0.10;99.90
70726;DHT22;58304;53.104;6.022;2022-12-11T01:55:54;0.10;99.90
70726;DHT22;58304;53.104;6.022;2022-12-11T01:58:24;0.10;99.90
70726;DHT22;58304;53.104;6.022;2022-12-11T02:00:51;0.10;99.90
70726;DHT22;58304;53.104;6.022;2022-12-11T02:03:17;0.10;99.90
70726;DHT22;58304;53.104;6.022;2022-12-11T02:05:43;0.10;99.90
70726;DHT22;58304;53.104;6.022;2022-12-11T02:08:08;0.10;99.90
70726;DHT22;58304;53.104;6.022;2022-12-11T02:11:05;0.10;99.90
70726;DHT22;58304;53.104;6.022;2022-12-11T02:16:18;0.10;99.90
70726;DHT22;58304;53.104;6.022;2022-12-11T02:19:01;0.20;99.90
70726;DHT22;58304;53.104;6.022;2022-12-11T02:21:45;0.20;99.90
70726;DHT22;58304;53.104;6.022;2022-12-11T02:27:34;0.20;99.90
70726;DHT22;58304;53.104;6.022;2022-12-11T02:30:07;0.20;99.90
70726;DHT22;58304;53.104;6.022;2022-12-11T02:35:20;0.20;99.90
70726;DHT22;58304;53.104;6.022;2022-12-11T02:37:50;0.20;99.90
70726;DHT22;58304;53.104;6.022;2022-12-11T02:40:21;0.20;99.90
70726;DHT22;58304;53.104;6.022;2022-12-11T02:42:49;0.20;99.90
70726;DHT22;58304;53.104;6.022;2022-12-11T02:45:17;0.20;99.90
70726;DHT22;58304;53.104;6.022;2022-12-11T02:47:46;0.20;99.90
70726;DHT22;58304;53.104;6.022;2022-12-11T02:50:15;0.20;99.90
70726;DHT22;58304;53.104;6.022;2022-12-11T02:52:42;0.20;99.90
70726;DHT22;58304;53.104;6.022;2022-12-11T02:55:10;0.20;99.90
70726;DHT22;58304;53.104;6.022;2022-12-11T02:58:01;0.20;99.90
70726;DHT22;58304;53.104;6.022;2022-12-11T03:00:29;0.30;99.90
70726;DHT22;58304;53.104;6.022;2022-12-11T03:02:56;0.30;99.90
70726;DHT22;58304;53.104;6.022;2022-12-11T03:05:22;0.20;99.90
70726;DHT22;58304;53.104;6.022;2022-12-11T03:07:47;0.30;99.90
70726;DHT22;58304;53.104;6.022;2022-12-11T03:10:16;0.30;99.90
70726;DHT22;58304;53.104;6.022;2022-12-11T03:12:46;0.30;99.90
70726;DHT22;58304;53.104;6.022;2022-12-11T03:15:16;0.30;99.90
70726;DHT22;58304;53.104;6.022;2022-12-11T03:20:44;0.20;99.90
70726;DHT22;58304;53.104;6.022;2022-12-11T03:23:29;0.30;99.90
70726;DHT22;58304;53.104;6.022;2022-12-11T03:26:00;0.30;99.90
70726;DHT22;58304;53.104;6.022;2022-12-11T03:28:30;0.30;99.90
70726;DHT22;58304;53.104;6.022;2022-12-11T03:31:01;0.30;99.90
70726;DHT22;58304;53.104;6.022;2022-12-11T03:33:43;0.30;99.90
70726;DHT22;58304;53.104;6.022;2022-12-11T03:36:13;0.30;99.90
70726;DHT22;58304;53.104;6.022;2022-12-11T03:38:46;0.20;99.90
70726;DHT22;58304;53.104;6.022;2022-12-11T03:41:18;0.30;99.90
70726;DHT22;58304;53.104;6.022;2022-12-11T03:43:44;0.30;99.90
70726;DHT22;58304;53.104;6.022;2022-12-11T03:46:12;0.40;99.90
70726;DHT22;58304;53.104;6.022;2022-12-11T03:48:39;0.30;99.90
70726;DHT22;58304;53.104;6.022;2022-12-11T03:51:07;0.30;99.90
70726;DHT22;58304;53.104;6.022;2022-12-11T03:53:34;0.30;99.90
70726;DHT22;58304;53.104;6.022;2022-12-11T03:56:02;0.30;99.90
70726;DHT22;58304;53.104;6.022;2022-12-11T03:58:29;0.30;99.90
70726;DHT22;58304;53.104;6.022;2022-12-11T04:00:54;0.30;99.90
70726;DHT22;58304;53.104;6.022;2022-12-11T04:03:20;0.30;99.90
70726;DHT22;58304;53.104;6.022;2022-12-11T04:05:48;0.30;99.90
70726;DHT22;58304;53.104;6.022;2022-12-11T04:08:15;0.40;99.90
70726;DHT22;58304;53.104;6.022;2022-12-11T04:10:41;0.40;99.90
70726;DHT22;58304;53.104;6.022;2022-12-11T04:13:07;0.30;99.90
70726;DHT22;58304;53.104;6.022;2022-12-11T04:15:34;0.40;99.90
70726;DHT22;58304;53.104;6.022;2022-12-11T04:17:59;0.40;99.90
70726;DHT22;58304;53.104;6.022;2022-12-11T04:20:44;0.40;99.90
70726;DHT22;58304;53.104;6.022;2022-12-11T04:23:28;0.40;99.90
70726;DHT22;58304;53.104;6.022;2022-12-11T04:26:15;0.30;99.90
70726;DHT22;58304;53.104;6.022;2022-12-11T04:28:42;0.40;99.90
70726;DHT22;58304;53.104;6.022;2022-12-11T04:31:12;0.40;99.90
70726;DHT22;58304;53.104;6.022;2022-12-11T04:33:38;0.40;99.90
70726;DHT22;58304;53.104;6.022;2022-12-11T04:36:04;0.40;99.90
70726;DHT22;58304;53.104;6.022;2022-12-11T04:38:30;0.40;99.90
70726;DHT22;58304;53.104;6.022;2022-12-11T04:41:07;0.40;99.90
70726;DHT22;58304;53.104;6.022;2022-12-11T04:43:33;0.30;99.90
70726;DHT22;58304;53.104;6.022;2022-12-11T04:46:04;0.40;99.90
70726;DHT22;58304;53.104;6.022;2022-12-11T04:48:30;0.40;99.90
70726;DHT22;58304;53.104;6.022;2022-12-11T04:50:56;0.40;99.90
70726;DHT22;58304;53.104;6.022;2022-12-11T04:53:22;0.40;99.90
70726;DHT22;58304;53.104;6.022;2022-12-11T04:55:47;0.40;99.90
70726;DHT22;58304;53.104;6.022;2022-12-11T04:58:13;0.40;99.90
70726;DHT22;58304;53.104;6.022;2022-12-11T05:00:40;0.40;99.90
70726;DHT22;58304;53.104;6.022;2022-12-11T05:03:05;0.40;99.90
70726;DHT22;58304;53.104;6.022;2022-12-11T05:05:31;0.40;99.90
70726;DHT22;58304;53.104;6.022;2022-12-11T05:07:57;0.40;99.90
70726;DHT22;58304;53.104;6.022;2022-12-11T05:10:22;0.40;99.90
70726;DHT22;58304;53.104;6.022;2022-12-11T05:12:48;0.40;99.90
70726;DHT22;58304;53.104;6.022;2022-12-11T05:15:13;0.40;99.90
70726;DHT22;58304;53.104;6.022;2022-12-11T05:17:39;0.40;99.90
70726;DHT22;58304;53.104;6.022;2022-12-11T05:20:05;0.40;99.90
70726;DHT22;58304;53.104;6.022;2022-12-11T05:22:31;0.40;99.90
70726;DHT22;58304;53.104;6.022;2022-12-11T05:24:56;0.40;99.90
70726;DHT22;58304;53.104;6.022;2022-12-11T05:27:22;0.40;99.90
70726;DHT22;58304;53.104;6.022;2022-12-11T05:29:48;0.40;99.90
70726;DHT22;58304;53.104;6.022;2022-12-11T05:32:14;0.40;99.90
70726;DHT22;58304;53.104;6.022;2022-12-11T05:34:40;0.40;99.90
70726;DHT22;58304;53.104;6.022;2022-12-11T05:37:06;0.40;99.90
70726;DHT22;58304;53.104;6.022;2022-12-11T05:39:32;0.30;99.90
70726;DHT22;58304;53.104;6.022;2022-12-11T05:41:57;0.40;99.90
70726;DHT22;58304;53.104;6.022;2022-12-11T05:44:23;0.40;99.90
70726;DHT22;58304;53.104;6.022;2022-12-11T05:46:49;0.40;99.90
70726;DHT22;58304;53.104;6.022;2022-12-11T05:49:14;0.40;99.90
70726;DHT22;58304;53.104;6.022;2022-12-11T05:51:40;0.40;99.90
70726;DHT22;58304;53.104;6.022;2022-12-11T05:54:06;0.30;99.90
70726;DHT22;58304;53.104;6.022;2022-12-11T05:56:33;0.30;99.90
70726;DHT22;58304;53.104;6.022;2022-12-11T05:59:00;0.30;99.90
70726;DHT22;58304;53.104;6.022;2022-12-11T06:01:34;0.30;99.90
70726;DHT22;58304;53.104;6.022;2022-12-11T06:04:00;0.30;99.90
70726;DHT22;58304;53.104;6.022;2022-12-11T06:06:27;0.30;99.90
70726;DHT22;58304;53.104;6.022;2022-12-11T06:08:55;0.30;99.90
70726;DHT22;58304;53.104;6.022;2022-12-11T06:11:21;0.30;99.90
70726;DHT22;58304;53.104;6.022;2022-12-11T06:13:47;0.30;99.90
70726;DHT22;58304;53.104;6.022;2022-12-11T06:16:13;0.40;99.90
70726;DHT22;58304;53.104;6.022;2022-12-11T06:18:41;0.30;99.90
70726;DHT22;58304;53.104;6.022;2022-12-11T06:21:15;0.30;99.90
70726;DHT22;58304;53.104;6.022;2022-12-11T06:23:42;0.30;99.90
70726;DHT22;58304;53.104;6.022;2022-12-11T06:26:08;0.30;99.90
70726;DHT22;58304;53.104;6.022;2022-12-11T06:28:34;0.30;99.90
70726;DHT22;58304;53.104;6.022;2022-12-11T06:31:00;0.30;99.90
70726;DHT22;58304;53.104;6.022;2022-12-11T06:33:26;0.30;99.90
70726;DHT22;58304;53.104;6.022;2022-12-11T06:35:52;0.40;99.90
70726;DHT22;58304;53.104;6.022;2022-12-11T06:38:18;0.30;99.90
70726;DHT22;58304;53.104;6.022;2022-12-11T06:40:44;0.40;99.90
70726;DHT22;58304;53.104;6.022;2022-12-11T06:43:09;0.40;99.90
70726;DHT22;58304;53.104;6.022;2022-12-11T06:45:38;0.30;99.90
70726;DHT22;58304;53.104;6.022;2022-12-11T06:48:04;0.40;99.90
70726;DHT22;58304;53.104;6.022;2022-12-11T06:50:29;0.30;99.90
70726;DHT22;58304;53.104;6.022;2022-12-11T06:52:56;0.30;99.90
70726;DHT22;58304;53.104;6.022;2022-12-11T06:55:21;0.40;99.90
70726;DHT22;58304;53.104;6.022;2022-12-11T06:57:47;0.30;99.90
70726;DHT22;58304;53.104;6.022;2022-12-11T07:00:13;0.40;99.90
70726;DHT22;58304;53.104;6.022;2022-12-11T07:02:38;0.40;99.90
70726;DHT22;58304;53.104;6.022;2022-12-11T07:05:04;0.40;99.90
70726;DHT22;58304;53.104;6.022;2022-12-11T07:07:30;0.30;99.90
70726;DHT22;58304;53.104;6.022;2022-12-11T07:09:56;0.40;99.90
70726;DHT22;58304;53.104;6.022;2022-12-11T07:12:21;0.40;99.90
70726;DHT22;58304;53.104;6.022;2022-12-11T07:14:47;0.40;99.90
70726;DHT22;58304;53.104;6.022;2022-12-11T07:17:12;0.40;99.90
70726;DHT22;58304;53.104;6.022;2022-12-11T07:19:38;0.40;99.90
70726;DHT22;58304;53.104;6.022;2022-12-11T07:22:05;0.40;99.90
70726;DHT22;58304;53.104;6.022;2022-12-11T07:24:30;0.40;99.90
70726;DHT22;58304;53.104;6.022;2022-12-11T07:26:56;0.40;99.90
70726;DHT22;58304;53.104;6.022;2022-12-11T07:29:22;0.40;99.90
70726;DHT22;58304;53.104;6.022;2022-12-11T07:31:47;0.40;99.90
70726;DHT22;58304;53.104;6.022;2022-12-11T07:34:13;0.40;99.90
70726;DHT22;58304;53.104;6.022;2022-12-11T07:36:39;0.40;99.90
70726;DHT22;58304;53.104;6.022;2022-12-11T07:39:05;0.40;99.90
70726;DHT22;58304;53.104;6.022;2022-12-11T07:41:32;0.40;99.90
70726;DHT22;58304;53.104;6.022;2022-12-11T07:43:58;0.40;99.90
70726;DHT22;58304;53.104;6.022;2022-12-11T07:46:26;0.40;99.90
70726;DHT22;58304;53.104;6.022;2022-12-11T07:48:52;0.40;99.90
70726;DHT22;58304;53.104;6.022;2022-12-11T07:51:23;0.40;99.90
70726;DHT22;58304;53.104;6.022;2022-12-11T07:53:53;0.40;99.90
70726;DHT22;58304;53.104;6.022;2022-12-11T07:56:19;0.50;99.90
70726;DHT22;58304;53.104;6.022;2022-12-11T07:58:45;0.40;99.90
70726;DHT22;58304;53.104;6.022;2022-12-11T08:01:22;0.40;99.90
70726;DHT22;58304;53.104;6.022;2022-12-11T08:03:48;0.40;99.90
70726;DHT22;58304;53.104;6.022;2022-12-11T08:06:15;0.50;99.90
70726;DHT22;58304;53.104;6.022;2022-12-11T08:08:41;0.50;99.90
70726;DHT22;58304;53.104;6.022;2022-12-11T08:11:12;0.50;99.90
70726;DHT22;58304;53.104;6.022;2022-12-11T08:13:42;0.50;99.90
70726;DHT22;58304;53.104;6.022;2022-12-11T08:16:10;0.50;99.90
70726;DHT22;58304;53.104;6.022;2022-12-11T08:18:37;0.50;99.90
70726;DHT22;58304;53.104;6.022;2022-12-11T08:21:05;0.50;99.90
70726;DHT22;58304;53.104;6.022;2022-12-11T08:23:30;0.60;99.90
70726;DHT22;58304;53.104;6.022;2022-12-11T08:25:56;0.50;99.90
70726;DHT22;58304;53.104;6.022;2022-12-11T08:28:21;0.50;99.90
70726;DHT22;58304;53.104;6.022;2022-12-11T08:30:47;0.50;99.90
70726;DHT22;58304;53.104;6.022;2022-12-11T08:33:12;0.50;99.90
70726;DHT22;58304;53.104;6.022;2022-12-11T08:35:38;0.60;99.90
70726;DHT22;58304;53.104;6.022;2022-12-11T08:38:04;0.60;99.90
70726;DHT22;58304;53.104;6.022;2022-12-11T08:40:29;0.60;99.90
70726;DHT22;58304;53.104;6.022;2022-12-11T08:42:55;0.60;99.90
70726;DHT22;58304;53.104;6.022;2022-12-11T08:45:21;0.60;99.90
70726;DHT22;58304;53.104;6.022;2022-12-11T08:47:46;0.60;99.90
70726;DHT22;58304;53.104;6.022;2022-12-11T08:50:12;0.60;99.90
70726;DHT22;58304;53.104;6.022;2022-12-11T08:52:37;0.60;99.90
70726;DHT22;58304;53.104;6.022;2022-12-11T08:55:03;0.70;99.90
70726;DHT22;58304;53.104;6.022;2022-12-11T08:57:29;0.70;99.90
70726;DHT22;58304;53.104;6.022;2022-12-11T08:59:54;0.70;99.90
70726;DHT22;58304;53.104;6.022;2022-12-11T09:02:20;0.70;99.90
70726;DHT22;58304;53.104;6.022;2022-12-11T09:04:46;0.70;99.90
70726;DHT22;58304;53.104;6.022;2022-12-11T09:07:11;0.80;99.90
70726;DHT22;58304;53.104;6.022;2022-12-11T09:09:37;0.70;99.90
70726;DHT22;58304;53.104;6.022;2022-12-11T09:12:03;0.70;99.90
70726;DHT22;58304;53.104;6.022;2022-12-11T09:14:29;0.80;99.90
70726;DHT22;58304;53.104;6.022;2022-12-11T09:16:55;0.80;99.90
70726;DHT22;58304;53.104;6.022;2022-12-11T09:19:20;0.80;99.90
70726;DHT22;58304;53.104;6.022;2022-12-11T09:21:46;0.80;99.90
70726;DHT22;58304;53.104;6.022;2022-12-11T09:24:12;0.80;99.90
70726;DHT22;58304;53.104;6.022;2022-12-11T09:26:38;0.90;99.90
70726;DHT22;58304;53.104;6.022;2022-12-11T09:29:05;0.90;99.90
70726;DHT22;58304;53.104;6.022;2022-12-11T09:31:33;0.90;99.90
70726;DHT22;58304;53.104;6.022;2022-12-11T09:34:01;0.90;99.90
70726;DHT22;58304;53.104;6.022;2022-12-11T09:36:27;0.90;99.90
70726;DHT22;58304;53.104;6.022;2022-12-11T09:38:53;0.90;99.90
70726;DHT22;58304;53.104;6.022;2022-12-11T09:43:56;0.90;99.90
70726;DHT22;58304;53.104;6.022;2022-12-11T09:46:24;0.90;99.90
70726;DHT22;58304;53.104;6.022;2022-12-11T09:48:51;1.00;99.90
70726;DHT22;58304;53.104;6.022;2022-12-11T09:51:20;0.90;99.90
70726;DHT22;58304;53.104;6.022;2022-12-11T09:53:49;1.00;99.90
70726;DHT22;58304;53.104;6.022;2022-12-11T09:56:48;1.00;99.90
70726;DHT22;58304;53.104;6.022;2022-12-11T10:15:48;1.10;99.90
70726;DHT22;58304;53.104;6.022;2022-12-11T10:18:18;1.10;99.90
70726;DHT22;58304;53.104;6.022;2022-12-11T10:20:48;1.10;99.90
70726;DHT22;58304;53.104;6.022;2022-12-11T10:23:19;1.20;99.90
70726;DHT22;58304;53.104;6.022;2022-12-11T10:25:50;1.20;99.90
70726;DHT22;58304;53.104;6.022;2022-12-11T10:28:19;1.20;99.90
70726;DHT22;58304;53.104;6.022;2022-12-11T10:38:31;1.40;99.90
70726;DHT22;58304;53.104;6.022;2022-12-11T10:40:58;1.40;99.90
70726;DHT22;58304;53.104;6.022;2022-12-11T10:43:42;1.40;99.90
70726;DHT22;58304;53.104;6.022;2022-12-11T10:46:16;1.40;99.90
70726;DHT22;58304;53.104;6.022;2022-12-11T10:48:48;1.40;99.90
70726;DHT22;58304;53.104;6.022;2022-12-11T10:51:14;1.50;99.90
70726;DHT22;58304;53.104;6.022;2022-12-11T10:53:41;1.50;99.90
70726;DHT22;58304;53.104;6.022;2022-12-11T10:56:08;1.50;99.90
70726;DHT22;58304;53.104;6.022;2022-12-11T10:58:37;1.50;99.90
70726;DHT22;58304;53.104;6.022;2022-12-11T11:01:14;1.50;99.90
70726;DHT22;58304;53.104;6.022;2022-12-11T11:04:13;1.50;99.90
70726;DHT22;58304;53.104;6.022;2022-12-11T11:06:39;1.40;99.90
70726;DHT22;58304;53.104;6.022;2022-12-11T11:09:29;1.40;99.90
70726;DHT22;58304;53.104;6.022;2022-12-11T11:11:55;1.40;99.90
70726;DHT22;58304;53.104;6.022;2022-12-11T11:14:21;1.50;99.90
70726;DHT22;58304;53.104;6.022;2022-12-11T11:16:53;1.40;99.90
70726;DHT22;58304;53.104;6.022;2022-12-11T11:19:30;1.50;99.90
70726;DHT22;58304;53.104;6.022;2022-12-11T11:21:59;1.40;99.90
70726;DHT22;58304;53.104;6.022;2022-12-11T11:24:35;1.50;99.90
70726;DHT22;58304;53.104;6.022;2022-12-11T11:27:11;1.50;99.90
70726;DHT22;58304;53.104;6.022;2022-12-11T11:29:38;1.40;99.90
70726;DHT22;58304;53.104;6.022;2022-12-11T11:32:16;1.50;99.90
70726;DHT22;58304;53.104;6.022;2022-12-11T11:34:44;1.50;99.90
70726;DHT22;58304;53.104;6.022;2022-12-11T11:37:30;1.50;99.90
70726;DHT22;58304;53.104;6.022;2022-12-11T11:40:05;1.50;99.90
70726;DHT22;58304;53.104;6.022;2022-12-11T11:42:48;1.50;99.90
70726;DHT22;58304;53.104;6.022;2022-12-11T11:45:24;1.60;99.90
70726;DHT22;58304;53.104;6.022;2022-12-11T11:47:59;1.70;99.90
70726;DHT22;58304;53.104;6.022;2022-12-11T11:50:29;1.70;99.90
70726;DHT22;58304;53.104;6.022;2022-12-11T11:53:24;1.70;99.90
70726;DHT22;58304;53.104;6.022;2022-12-11T11:56:09;1.70;99.90
70726;DHT22;58304;53.104;6.022;2022-12-11T12:01:03;1.70;99.90
70726;DHT22;58304;53.104;6.022;2022-12-11T12:03:29;1.80;99.90
70726;DHT22;58304;53.104;6.022;2022-12-11T12:11:37;1.70;99.90
70726;DHT22;58304;53.104;6.022;2022-12-11T12:14:21;1.70;99.90
70726;DHT22;58304;53.104;6.022;2022-12-11T12:30:09;1.80;99.90
70726;DHT22;58304;53.104;6.022;2022-12-11T12:35:37;1.80;99.90
70726;DHT22;58304;53.104;6.022;2022-12-11T12:43:41;1.80;99.90
70726;DHT22;58304;53.104;6.022;2022-12-11T12:48:47;1.80;99.90
70726;DHT22;58304;53.104;6.022;2022-12-11T12:51:14;1.80;99.90
70726;DHT22;58304;53.104;6.022;2022-12-11T12:53:47;1.80;99.90
70726;DHT22;58304;53.104;6.022;2022-12-11T12:56:14;1.80;99.90
70726;DHT22;58304;53.104;6.022;2022-12-11T12:58:43;1.80;99.90
70726;DHT22;58304;53.104;6.022;2022-12-11T13:01:21;1.80;99.90
70726;DHT22;58304;53.104;6.022;2022-12-11T13:03:59;1.80;99.90
70726;DHT22;58304;53.104;6.022;2022-12-11T13:06:41;1.80;99.90
70726;DHT22;58304;53.104;6.022;2022-12-11T13:11:45;1.80;99.90
70726;DHT22;58304;53.104;6.022;2022-12-11T13:16:42;1.80;99.90
70726;DHT22;58304;53.104;6.022;2022-12-11T13:27:43;1.80;99.90
70726;DHT22;58304;53.104;6.022;2022-12-11T13:33:02;1.70;99.90
70726;DHT22;58304;53.104;6.022;2022-12-11T13:35:30;1.70;99.90
70726;DHT22;58304;53.104;6.022;2022-12-11T13:38:03;1.70;99.90
70726;DHT22;58304;53.104;6.022;2022-12-11T13:40:38;1.70;99.90
70726;DHT22;58304;53.104;6.022;2022-12-11T13:43:18;1.80;99.90
70726;DHT22;58304;53.104;6.022;2022-12-11T13:45:48;1.70;99.90
70726;DHT22;58304;53.104;6.022;2022-12-11T13:48:34;1.70;99.90
70726;DHT22;58304;53.104;6.022;2022-12-11T13:51:01;1.70;99.90
70726;DHT22;58304;53.104;6.022;2022-12-11T13:53:28;1.70;99.90
70726;DHT22;58304;53.104;6.022;2022-12-11T13:56:05;1.70;99.90
70726;DHT22;58304;53.104;6.022;2022-12-11T13:58:37;1.60;99.90
70726;DHT22;58304;53.104;6.022;2022-12-11T14:01:07;1.50;99.90
70726;DHT22;58304;53.104;6.022;2022-12-11T14:03:38;1.50;99.90
70726;DHT22;58304;53.104;6.022;2022-12-11T14:06:08;1.50;99.90
70726;DHT22;58304;53.104;6.022;2022-12-11T14:08:36;1.40;99.90
70726;DHT22;58304;53.104;6.022;2022-12-11T14:11:03;1.40;99.90
70726;DHT22;58304;53.104;6.022;2022-12-11T14:13:35;1.40;99.90
70726;DHT22;58304;53.104;6.022;2022-12-11T14:16:02;1.40;99.90
70726;DHT22;58304;53.104;6.022;2022-12-11T14:18:30;1.40;99.90
70726;DHT22;58304;53.104;6.022;2022-12-11T14:20:59;1.30;99.90
70726;DHT22;58304;53.104;6.022;2022-12-11T14:23:28;1.30;99.90
70726;DHT22;58304;53.104;6.022;2022-12-11T14:26:14;1.30;99.90
70726;DHT22;58304;53.104;6.022;2022-12-11T14:28:42;1.20;99.90
70726;DHT22;58304;53.104;6.022;2022-12-11T14:31:08;1.20;99.90
70726;DHT22;58304;53.104;6.022;2022-12-11T14:33:42;1.20;99.90
70726;DHT22;58304;53.104;6.022;2022-12-11T14:36:08;1.20;99.90
70726;DHT22;58304;53.104;6.022;2022-12-11T14:38:38;1.20;99.90
70726;DHT22;58304;53.104;6.022;2022-12-11T14:41:15;1.20;99.90
70726;DHT22;58304;53.104;6.022;2022-12-11T14:43:49;1.20;99.90
70726;DHT22;58304;53.104;6.022;2022-12-11T14:46:19;1.20;99.90
70726;DHT22;58304;53.104;6.022;2022-12-11T14:48:51;1.10;99.90
70726;DHT22;58304;53.104;6.022;2022-12-11T14:51:19;1.10;99.90
70726;DHT22;58304;53.104;6.022;2022-12-11T14:53:47;1.10;99.90
70726;DHT22;58304;53.104;6.022;2022-12-11T14:56:18;1.00;99.90
70726;DHT22;58304;53.104;6.022;2022-12-11T14:59:05;1.00;99.90
70726;DHT22;58304;53.104;6.022;2022-12-11T15:01:35;1.00;99.90
70726;DHT22;58304;53.104;6.022;2022-12-11T15:06:48;1.00;99.90
70726;DHT22;58304;53.104;6.022;2022-12-11T15:09:38;1.00;99.90
70726;DHT22;58304;53.104;6.022;2022-12-11T15:12:15;0.90;99.90
70726;DHT22;58304;53.104;6.022;2022-12-11T15:14:54;0.90;99.90
70726;DHT22;58304;53.104;6.022;2022-12-11T15:17:21;0.90;99.90
70726;DHT22;58304;53.104;6.022;2022-12-11T15:19:50;0.90;99.90
70726;DHT22;58304;53.104;6.022;2022-12-11T15:22:19;0.90;99.90
70726;DHT22;58304;53.104;6.022;2022-12-11T15:24:50;0.90;99.90
70726;DHT22;58304;53.104;6.022;2022-12-11T15:27:24;0.80;99.90
70726;DHT22;58304;53.104;6.022;2022-12-11T15:29:55;0.80;99.90
70726;DHT22;58304;53.104;6.022;2022-12-11T15:32:21;0.80;99.90
70726;DHT22;58304;53.104;6.022;2022-12-11T15:34:52;0.70;99.90
70726;DHT22;58304;53.104;6.022;2022-12-11T15:39:53;0.70;99.90
70726;DHT22;58304;53.104;6.022;2022-12-11T15:42:25;0.70;99.90
70726;DHT22;58304;53.104;6.022;2022-12-11T15:44:52;0.80;99.90
70726;DHT22;58304;53.104;6.022;2022-12-11T15:47:22;0.70;99.90
70726;DHT22;58304;53.104;6.022;2022-12-11T15:49:48;0.70;99.90
70726;DHT22;58304;53.104;6.022;2022-12-11T15:52:13;0.60;99.90
70726;DHT22;58304;53.104;6.022;2022-12-11T15:54:39;0.60;99.90
70726;DHT22;58304;53.104;6.022;2022-12-11T15:57:06;0.60;99.90
70726;DHT22;58304;53.104;6.022;2022-12-11T15:59:37;0.60;99.90
70726;DHT22;58304;53.104;6.022;2022-12-11T16:02:07;0.60;99.90
70726;DHT22;58304;53.104;6.022;2022-12-11T16:04:33;0.60;99.90
70726;DHT22;58304;53.104;6.022;2022-12-11T16:06:59;0.60;99.90
70726;DHT22;58304;53.104;6.022;2022-12-11T16:09:25;0.60;99.90
70726;DHT22;58304;53.104;6.022;2022-12-11T16:11:50;0.60;99.90
70726;DHT22;58304;53.104;6.022;2022-12-11T16:14:16;0.60;99.90
70726;DHT22;58304;53.104;6.022;2022-12-11T16:16:41;0.60;99.90
70726;DHT22;58304;53.104;6.022;2022-12-11T16:19:07;0.50;99.90
70726;DHT22;58304;53.104;6.022;2022-12-11T16:21:32;0.50;99.90
70726;DHT22;58304;53.104;6.022;2022-12-11T16:23:58;0.50;99.90
70726;DHT22;58304;53.104;6.022;2022-12-11T16:26:23;0.50;99.90
70726;DHT22;58304;53.104;6.022;2022-12-11T16:28:49;0.50;99.90
70726;DHT22;58304;53.104;6.022;2022-12-11T16:31:15;0.50;99.90
70726;DHT22;58304;53.104;6.022;2022-12-11T16:33:42;0.50;99.90
70726;DHT22;58304;53.104;6.022;2022-12-11T16:36:18;0.50;99.90
70726;DHT22;58304;53.104;6.022;2022-12-11T16:38:46;0.50;99.90
70726;DHT22;58304;53.104;6.022;2022-12-11T16:41:12;0.50;99.90
70726;DHT22;58304;53.104;6.022;2022-12-11T16:43:37;0.50;99.90
70726;DHT22;58304;53.104;6.022;2022-12-11T16:46:03;0.50;99.90
70726;DHT22;58304;53.104;6.022;2022-12-11T16:48:29;0.50;99.90
70726;DHT22;58304;53.104;6.022;2022-12-11T16:50:55;0.50;99.90
70726;DHT22;58304;53.104;6.022;2022-12-11T16:53:21;0.40;99.90
70726;DHT22;58304;53.104;6.022;2022-12-11T16:55:47;0.40;99.90
70726;DHT22;58304;53.104;6.022;2022-12-11T16:58:12;0.40;99.90
70726;DHT22;58304;53.104;6.022;2022-12-11T17:00:45;0.40;99.90
70726;DHT22;58304;53.104;6.022;2022-12-11T17:03:11;0.40;99.90
70726;DHT22;58304;53.104;6.022;2022-12-11T17:05:40;0.40;99.90
70726;DHT22;58304;53.104;6.022;2022-12-11T17:08:06;0.40;99.90
70726;DHT22;58304;53.104;6.022;2022-12-11T17:10:32;0.40;99.90
70726;DHT22;58304;53.104;6.022;2022-12-11T17:12:58;0.40;99.90
70726;DHT22;58304;53.104;6.022;2022-12-11T17:15:23;0.40;99.90
70726;DHT22;58304;53.104;6.022;2022-12-11T17:17:49;0.40;99.90
70726;DHT22;58304;53.104;6.022;2022-12-11T17:20:14;0.40;99.90
70726;DHT22;58304;53.104;6.022;2022-12-11T17:22:40;0.40;99.90
70726;DHT22;58304;53.104;6.022;2022-12-11T17:25:06;0.40;99.90
70726;DHT22;58304;53.104;6.022;2022-12-11T17:27:32;0.40;99.90